Time;durP1;ratioP1;P1;durP2;ratioP2;P2;SDS_P1;SDS_P2;PMS_P1;PMS_P2;Temp;Humidity;BMP_temperature;BMP_pressure;BME280_temperature;BME280_humidity;BME280_pressure;Samples;Min_cycle;Max_cycle;Signal;HPM_P1;HPM_P2
2023/12/09 00:00:10;;;;;;;10.43;3.85;;;12.70;53.30;;;;;;344242;28;854;-57
2023/12/09 00:00:20;;;;;;;9.20;3.45;;;12.70;53.30;;;;;;344233;28;972;-56
2023/12/09 00:00:31;;;;;;;9.77;3.37;;;12.70;53.40;;;;;;344198;28;1963;-57
2023/12/09 00:00:42;;;;;;;8.98;3.35;;;12.70;53.30;;;;;;344125;28;1042;-57
2023/12/09 00:00:52;;;;;;;7.90;3.20;;;12.70;53.20;;;;;;344215;28;822;-56
2023/12/09 00:01:03;;;;;;;9.05;3.40;;;12.70;53.10;;;;;;344252;28;938;-55
2023/12/09 00:01:15;;;;;;;10.02;3.55;;;12.70;53.10;;;;;;344026;28;1388;-57
2023/12/09 00:01:26;;;;;;;10.43;3.55;;;12.70;53.10;;;;;;344264;28;919;-56
2023/12/09 00:01:43;;;;;;;9.25;3.40;;;12.70;53.10;;;;;;344210;28;1011;-56
2023/12/09 00:01:54;;;;;;;9.77;3.22;;;12.70;53.10;;;;;;344212;28;924;-55
2023/12/09 00:02:05;;;;;;;9.93;3.25;;;12.70;53.20;;;;;;344262;28;909;-57
2023/12/09 00:02:16;;;;;;;10.10;3.10;;;12.70;53.20;;;;;;344255;28;889;-56
2023/12/09 00:02:26;;;;;;;10.93;3.22;;;12.70;53.10;;;;;;344119;28;1076;-56
2023/12/09 00:02:37;;;;;;;11.73;3.38;;;12.70;53.00;;;;;;344173;28;1088;-56
2023/12/09 00:02:48;;;;;;;11.60;3.42;;;12.70;53.00;;;;;;344290;28;1253;-57
2023/12/09 00:02:59;;;;;;;10.95;3.35;;;12.70;53.00;;;;;;344243;28;1000;-56
2023/12/09 00:03:10;;;;;;;10.30;3.35;;;12.70;53.00;;;;;;344211;28;1025;-56
2023/12/09 00:03:20;;;;;;;10.23;3.57;;;12.60;53.00;;;;;;344188;28;1802;-58
2023/12/09 00:03:31;;;;;;;9.60;3.70;;;12.60;53.10;;;;;;344224;28;1067;-56
2023/12/09 00:03:42;;;;;;;11.18;3.75;;;12.60;53.10;;;;;;344187;28;1549;-57
2023/12/09 00:03:52;;;;;;;12.57;4.57;;;12.50;53.20;;;;;;344231;28;1004;-57
2023/12/09 00:04:03;;;;;;;12.13;4.95;;;12.50;53.20;;;;;;344235;28;1000;-56
2023/12/09 00:04:14;;;;;;;11.53;4.77;;;12.50;53.30;;;;;;344182;28;1028;-56
2023/12/09 00:04:25;;;;;;;9.82;3.97;;;12.50;53.40;;;;;;344215;28;1028;-57
2023/12/09 00:04:36;;;;;;;10.20;3.65;;;12.40;53.50;;;;;;344211;28;1052;-56
2023/12/09 00:04:46;;;;;;;10.65;4.00;;;12.40;53.60;;;;;;344236;28;1059;-57
2023/12/09 00:04:57;;;;;;;11.07;3.83;;;12.40;53.70;;;;;;344240;28;834;-57
2023/12/09 00:05:08;;;;;;;10.67;3.40;;;12.40;53.80;;;;;;344185;28;1011;-56
2023/12/09 00:05:19;;;;;;;12.23;3.50;;;12.40;53.90;;;;;;344246;28;1519;-56
2023/12/09 00:05:29;;;;;;;11.98;3.63;;;12.40;54.00;;;;;;344230;28;1032;-56
2023/12/09 00:05:40;;;;;;;11.05;4.03;;;12.40;54.10;;;;;;344140;28;1144;-57
2023/12/09 00:05:51;;;;;;;9.90;4.28;;;12.40;54.20;;;;;;344157;28;1088;-57
2023/12/09 00:06:02;;;;;;;10.27;4.30;;;12.40;54.10;;;;;;344244;28;830;-57
2023/12/09 00:06:13;;;;;;;10.25;4.25;;;12.40;54.10;;;;;;344194;28;984;-57
2023/12/09 00:06:24;;;;;;;10.63;4.05;;;12.40;54.10;;;;;;344297;28;857;-57
2023/12/09 00:06:35;;;;;;;12.20;4.45;;;12.40;54.10;;;;;;344217;28;1075;-57
2023/12/09 00:06:47;;;;;;;12.68;4.22;;;12.40;54.10;;;;;;344163;28;1557;-57
2023/12/09 00:06:58;;;;;;;13.35;4.47;;;12.40;54.10;;;;;;344276;28;841;-55
2023/12/09 00:07:09;;;;;;;10.88;3.70;;;12.40;54.10;;;;;;344287;28;1050;-56
2023/12/09 00:07:20;;;;;;;9.50;3.30;;;12.40;54.10;;;;;;344168;28;1065;-56
2023/12/09 00:07:30;;;;;;;9.40;3.15;;;12.40;54.10;;;;;;344177;28;2837;-57
2023/12/09 00:07:41;;;;;;;9.30;3.13;;;12.40;54.10;;;;;;344207;28;1107;-56
2023/12/09 00:07:52;;;;;;;10.35;3.30;;;12.40;54.10;;;;;;344127;28;1012;-56
2023/12/09 00:08:03;;;;;;;11.98;3.72;;;12.40;54.00;;;;;;344227;28;818;-57
2023/12/09 00:08:14;;;;;;;12.43;4.03;;;12.40;54.20;;;;;;344297;28;1007;-56
2023/12/09 00:08:24;;;;;;;11.45;4.10;;;12.30;54.30;;;;;;344192;28;947;-56
2023/12/09 00:08:35;;;;;;;11.60;3.80;;;12.30;54.50;;;;;;344220;28;1095;-57
2023/12/09 00:08:46;;;;;;;12.60;4.90;;;12.30;54.60;;;;;;344237;28;1003;-58
2023/12/09 00:08:57;;;;;;;12.82;5.30;;;12.30;54.70;;;;;;344182;28;1499;-58
2023/12/09 00:09:07;;;;;;;11.90;5.60;;;12.40;54.60;;;;;;344315;28;896;-57
2023/12/09 00:09:18;;;;;;;11.20;4.32;;;12.40;54.60;;;;;;344236;28;1152;-57
2023/12/09 00:09:29;;;;;;;11.00;3.97;;;12.30;54.50;;;;;;344163;28;1147;-56
2023/12/09 00:09:40;;;;;;;9.35;3.95;;;12.30;54.50;;;;;;344236;28;980;-57
2023/12/09 00:09:51;;;;;;;9.25;3.88;;;12.30;54.50;;;;;;344279;28;968;-56
2023/12/09 00:10:02;;;;;;;9.77;3.92;;;12.30;54.40;;;;;;344106;28;2002;-57
2023/12/09 00:10:13;;;;;;;9.90;3.55;;;12.30;54.30;;;;;;344244;28;1098;-56
2023/12/09 00:10:24;;;;;;;9.48;3.45;;;12.30;54.20;;;;;;344256;28;1865;-57
2023/12/09 00:10:35;;;;;;;8.82;3.38;;;12.30;54.30;;;;;;344142;28;1084;-56
2023/12/09 00:10:45;;;;;;;9.83;3.70;;;12.20;54.40;;;;;;344183;28;952;-58
2023/12/09 00:10:56;;;;;;;10.48;3.83;;;12.20;54.40;;;;;;344186;28;1174;-56
2023/12/09 00:11:07;;;;;;;10.82;3.63;;;12.30;54.40;;;;;;344144;28;1083;-56
2023/12/09 00:11:18;;;;;;;10.05;3.47;;;12.30;54.50;;;;;;344235;28;1130;-57
2023/12/09 00:11:29;;;;;;;10.15;3.38;;;12.20;54.50;;;;;;344242;28;838;-57
2023/12/09 00:11:40;;;;;;;10.80;3.42;;;12.20;54.50;;;;;;344173;28;1015;-57
2023/12/09 00:11:50;;;;;;;9.43;3.50;;;12.20;54.60;;;;;;344235;28;984;-57
2023/12/09 00:12:01;;;;;;;9.67;3.57;;;12.20;54.60;;;;;;344238;28;968;-56
2023/12/09 00:12:12;;;;;;;8.75;3.60;;;12.20;54.60;;;;;;344184;28;1133;-56
2023/12/09 00:12:23;;;;;;;10.32;3.65;;;12.20;54.70;;;;;;344202;28;1019;-56
2023/12/09 00:12:33;;;;;;;9.95;3.55;;;12.20;54.80;;;;;;344237;28;972;-57
2023/12/09 00:12:44;;;;;;;10.38;3.30;;;12.20;54.80;;;;;;344157;28;897;-57
2023/12/09 00:12:55;;;;;;;10.90;3.40;;;12.20;54.80;;;;;;344201;28;1923;-57
2023/12/09 00:13:05;;;;;;;10.63;3.50;;;12.20;54.80;;;;;;344199;28;976;-56
2023/12/09 00:13:17;;;;;;;10.00;3.53;;;12.10;54.80;;;;;;344153;28;1005;-58
2023/12/09 00:13:27;;;;;;;8.88;3.45;;;12.10;54.90;;;;;;344233;28;952;-58
2023/12/09 00:13:38;;;;;;;9.25;3.63;;;12.10;55.10;;;;;;344178;28;1127;-56
2023/12/09 00:13:49;;;;;;;11.70;4.85;;;12.10;55.20;;;;;;344144;28;1119;-56
2023/12/09 00:14:03;;;;;;;12.67;5.40;;;12.10;55.30;;;;;;344190;28;1167;-57
2023/12/09 00:14:14;;;;;;;12.35;5.57;;;12.10;55.30;;;;;;344193;28;1061;-56
2023/12/09 00:14:25;;;;;;;11.82;4.38;;;12.10;55.30;;;;;;344196;28;956;-56
2023/12/09 00:14:35;;;;;;;11.27;4.07;;;12.20;55.30;;;;;;344254;28;865;-56
2023/12/09 00:14:46;;;;;;;11.10;3.70;;;12.10;55.30;;;;;;344175;28;1166;-56
2023/12/09 00:14:57;;;;;;;11.07;3.83;;;12.10;55.30;;;;;;344108;28;1488;-58
2023/12/09 00:15:09;;;;;;;11.43;3.97;;;12.10;55.30;;;;;;344237;28;1326;-56
2023/12/09 00:15:20;;;;;;;14.35;4.43;;;12.10;55.30;;;;;;344269;28;2000;-56
2023/12/09 00:15:31;;;;;;;14.45;4.63;;;12.10;55.40;;;;;;344254;28;900;-56
2023/12/09 00:15:41;;;;;;;13.13;4.43;;;12.20;55.40;;;;;;344161;28;1037;-56
2023/12/09 00:15:52;;;;;;;9.90;4.03;;;12.10;55.30;;;;;;344191;28;1051;-57
2023/12/09 00:16:04;;;;;;;10.60;4.17;;;12.10;55.30;;;;;;344224;28;861;-57
2023/12/09 00:16:15;;;;;;;10.18;4.32;;;12.10;55.40;;;;;;344275;28;925;-57
2023/12/09 00:16:26;;;;;;;9.73;4.25;;;12.20;55.30;;;;;;344128;28;872;-56
2023/12/09 00:16:36;;;;;;;7.55;3.53;;;12.20;55.30;;;;;;344218;28;2489;-55
2023/12/09 00:16:47;;;;;;;8.05;3.40;;;12.20;55.20;;;;;;344277;28;1028;-57
2023/12/09 00:16:58;;;;;;;8.38;3.30;;;12.20;55.10;;;;;;344216;28;1098;-56
2023/12/09 00:17:09;;;;;;;10.27;3.63;;;12.20;55.10;;;;;;344132;28;978;-55
2023/12/09 00:17:19;;;;;;;10.15;3.65;;;12.10;55.10;;;;;;344228;28;1236;-57
2023/12/09 00:17:30;;;;;;;9.60;3.63;;;12.10;55.10;;;;;;344264;28;1028;-57
2023/12/09 00:17:41;;;;;;;8.23;3.30;;;12.10;55.30;;;;;;344262;28;1058;-56
2023/12/09 00:17:52;;;;;;;8.10;3.45;;;12.10;55.50;;;;;;344151;28;1103;-58
2023/12/09 00:18:03;;;;;;;8.95;3.67;;;12.10;55.50;;;;;;344243;28;990;-57
2023/12/09 00:18:15;;;;;;;10.63;3.80;;;12.10;55.50;;;;;;344259;28;1007;-57
2023/12/09 00:18:26;;;;;;;10.13;3.90;;;12.20;55.50;;;;;;344203;28;1550;-56
2023/12/09 00:18:36;;;;;;;10.07;3.90;;;12.20;55.30;;;;;;344155;28;1034;-57
2023/12/09 00:18:47;;;;;;;9.30;3.90;;;12.20;55.30;;;;;;344201;28;1020;-56
2023/12/09 00:19:01;;;;;;;11.43;3.75;;;12.20;55.40;;;;;;344187;28;1020;-57
2023/12/09 00:19:12;;;;;;;11.82;3.53;;;12.20;55.30;;;;;;344221;28;1012;-57
2023/12/09 00:19:23;;;;;;;11.15;3.70;;;12.20;55.20;;;;;;344183;28;1294;-57
2023/12/09 00:19:34;;;;;;;10.83;3.70;;;12.20;55.20;;;;;;344190;28;972;-57
2023/12/09 00:19:45;;;;;;;9.90;3.83;;;12.20;55.20;;;;;;344200;28;1079;-57
2023/12/09 00:19:55;;;;;;;11.05;3.80;;;12.20;55.20;;;;;;344266;28;818;-55
2023/12/09 00:20:07;;;;;;;11.23;3.90;;;12.20;55.30;;;;;;344156;28;878;-56
2023/12/09 00:20:18;;;;;;;10.38;3.85;;;12.10;55.40;;;;;;344198;28;1103;-56
2023/12/09 00:20:29;;;;;;;9.52;3.75;;;12.10;55.50;;;;;;344222;28;1305;-56
2023/12/09 00:20:40;;;;;;;9.02;3.60;;;12.20;55.50;;;;;;344227;28;873;-57
2023/12/09 00:20:50;;;;;;;11.45;4.85;;;12.10;55.50;;;;;;344090;28;1011;-57
2023/12/09 00:21:01;;;;;;;14.93;7.07;;;12.20;55.60;;;;;;344281;28;944;-56
2023/12/09 00:21:12;;;;;;;16.88;7.72;;;12.10;55.60;;;;;;344151;28;1266;-57
2023/12/09 00:21:23;;;;;;;14.32;5.45;;;12.10;55.50;;;;;;344163;28;980;-56
2023/12/09 00:21:34;;;;;;;11.77;4.43;;;12.20;55.50;;;;;;344114;28;1086;-58
2023/12/09 00:21:44;;;;;;;10.75;4.28;;;12.10;55.40;;;;;;344261;28;872;-57
2023/12/09 00:21:55;;;;;;;10.95;4.38;;;12.10;55.40;;;;;;344197;28;818;-57
2023/12/09 00:22:06;;;;;;;10.40;3.92;;;12.20;55.40;;;;;;344177;28;1087;-56
2023/12/09 00:22:17;;;;;;;9.68;3.63;;;12.10;55.50;;;;;;344153;28;1091;-56
2023/12/09 00:22:27;;;;;;;12.80;3.70;;;12.10;55.60;;;;;;344211;28;1033;-57
2023/12/09 00:22:38;;;;;;;12.57;3.97;;;12.10;55.60;;;;;;344217;28;1031;-56
2023/12/09 00:22:49;;;;;;;12.78;4.00;;;12.20;55.60;;;;;;344232;28;865;-57
2023/12/09 00:23:00;;;;;;;9.53;3.67;;;12.10;55.50;;;;;;344117;28;1111;-56
2023/12/09 00:23:11;;;;;;;11.65;3.72;;;12.20;55.50;;;;;;344260;28;936;-58
2023/12/09 00:23:22;;;;;;;12.43;3.78;;;12.20;55.50;;;;;;344208;28;1047;-57
2023/12/09 00:23:32;;;;;;;12.48;4.03;;;12.20;55.50;;;;;;344193;28;1104;-57
2023/12/09 00:23:43;;;;;;;12.73;4.07;;;12.20;55.50;;;;;;344153;28;1088;-57
2023/12/09 00:23:54;;;;;;;12.27;4.07;;;12.20;55.50;;;;;;344222;28;827;-57
2023/12/09 00:24:05;;;;;;;13.07;4.15;;;12.10;55.50;;;;;;344251;28;1011;-57
2023/12/09 00:24:15;;;;;;;10.63;3.85;;;12.10;55.40;;;;;;344199;28;1071;-56
2023/12/09 00:24:26;;;;;;;10.57;4.00;;;12.10;55.40;;;;;;344099;28;1426;-57
2023/12/09 00:24:37;;;;;;;10.20;4.10;;;12.10;55.50;;;;;;344209;28;984;-57
2023/12/09 00:24:48;;;;;;;11.35;4.10;;;12.10;55.40;;;;;;344243;28;976;-56
2023/12/09 00:24:59;;;;;;;13.23;4.13;;;12.10;55.40;;;;;;344200;28;972;-57
2023/12/09 00:25:10;;;;;;;13.15;4.20;;;12.10;55.40;;;;;;344145;28;1126;-57
2023/12/09 00:25:21;;;;;;;10.97;4.07;;;12.10;55.50;;;;;;344177;28;1825;-56
2023/12/09 00:25:31;;;;;;;11.77;3.87;;;12.10;55.50;;;;;;344209;28;897;-57
2023/12/09 00:25:42;;;;;;;11.20;3.58;;;12.10;55.60;;;;;;344233;28;972;-56
2023/12/09 00:25:53;;;;;;;11.65;3.70;;;12.10;55.60;;;;;;344126;28;1006;-56
2023/12/09 00:26:05;;;;;;;10.50;3.60;;;12.10;55.60;;;;;;344198;28;1163;-56
2023/12/09 00:26:16;;;;;;;12.43;3.83;;;12.10;55.60;;;;;;344222;28;1198;-59
2023/12/09 00:26:26;;;;;;;11.52;3.75;;;12.10;55.70;;;;;;344244;28;1807;-57
2023/12/09 00:26:37;;;;;;;10.23;3.77;;;12.10;55.90;;;;;;344149;28;940;-57
2023/12/09 00:26:48;;;;;;;11.20;4.10;;;12.10;55.90;;;;;;344222;28;803;-56
2023/12/09 00:26:59;;;;;;;11.60;3.90;;;12.10;56.00;;;;;;344133;28;1101;-55
2023/12/09 00:27:09;;;;;;;12.00;3.72;;;12.10;56.00;;;;;;344239;28;1072;-57
2023/12/09 00:27:20;;;;;;;10.32;3.33;;;12.10;56.00;;;;;;344159;28;928;-56
2023/12/09 00:27:31;;;;;;;9.83;3.63;;;12.10;55.90;;;;;;344258;28;818;-56
2023/12/09 00:27:42;;;;;;;10.75;4.00;;;12.10;55.90;;;;;;344233;28;1039;-56
2023/12/09 00:27:52;;;;;;;10.85;4.00;;;12.10;55.90;;;;;;344122;28;1028;-58
2023/12/09 00:28:03;;;;;;;11.07;4.15;;;12.10;55.80;;;;;;344069;28;1404;-56
2023/12/09 00:28:14;;;;;;;10.57;4.20;;;12.10;55.90;;;;;;344184;28;1016;-55
2023/12/09 00:28:26;;;;;;;9.77;4.22;;;12.10;55.90;;;;;;344187;28;1043;-56
2023/12/09 00:28:36;;;;;;;10.18;4.22;;;12.10;55.90;;;;;;344276;28;1003;-57
2023/12/09 00:28:47;;;;;;;11.30;4.20;;;12.10;55.90;;;;;;344137;28;947;-56
2023/12/09 00:28:58;;;;;;;11.38;4.13;;;12.10;55.90;;;;;;344155;28;1028;-56
2023/12/09 00:29:09;;;;;;;12.35;4.32;;;12.10;56.00;;;;;;344195;28;1011;-57
2023/12/09 00:29:19;;;;;;;12.13;4.63;;;12.10;55.90;;;;;;344221;28;1066;-56
2023/12/09 00:29:30;;;;;;;11.85;4.50;;;12.10;56.00;;;;;;344146;28;896;-57
2023/12/09 00:29:41;;;;;;;10.77;4.43;;;12.10;55.90;;;;;;344239;28;1008;-56
2023/12/09 00:29:52;;;;;;;10.73;4.25;;;12.10;55.90;;;;;;344208;28;858;-57
2023/12/09 00:30:03;;;;;;;10.00;4.00;;;12.10;55.90;;;;;;344115;28;1329;-57
2023/12/09 00:30:14;;;;;;;9.38;3.85;;;12.10;55.90;;;;;;344185;28;1059;-56
2023/12/09 00:30:25;;;;;;;10.32;4.13;;;12.10;55.80;;;;;;344257;28;864;-55
2023/12/09 00:30:36;;;;;;;11.90;4.28;;;12.20;55.90;;;;;;344149;28;1080;-56
2023/12/09 00:30:46;;;;;;;11.13;4.00;;;12.20;55.90;;;;;;344153;28;1178;-57
2023/12/09 00:30:57;;;;;;;12.10;4.13;;;12.20;55.90;;;;;;344185;28;1488;-57
2023/12/09 00:31:08;;;;;;;11.57;4.22;;;12.20;55.90;;;;;;344081;28;1092;-57
2023/12/09 00:31:19;;;;;;;11.85;4.20;;;12.20;55.90;;;;;;344275;28;861;-57
2023/12/09 00:31:29;;;;;;;10.88;4.28;;;12.20;56.00;;;;;;344162;28;1220;-56
2023/12/09 00:31:40;;;;;;;10.60;4.18;;;12.20;55.90;;;;;;344140;28;1079;-56
2023/12/09 00:31:51;;;;;;;10.80;4.00;;;12.20;55.90;;;;;;344178;28;1008;-56
2023/12/09 00:32:02;;;;;;;11.17;3.90;;;12.20;55.90;;;;;;344197;28;1015;-56
2023/12/09 00:32:13;;;;;;;11.93;4.07;;;12.20;55.80;;;;;;344168;28;1043;-56
2023/12/09 00:32:24;;;;;;;11.00;4.32;;;12.20;55.60;;;;;;344202;28;1392;-55
2023/12/09 00:32:35;;;;;;;12.90;4.40;;;12.20;55.50;;;;;;344197;28;919;-57
2023/12/09 00:32:46;;;;;;;13.97;4.67;;;12.20;55.50;;;;;;344161;28;1099;-57
2023/12/09 00:32:57;;;;;;;13.90;4.43;;;12.20;55.40;;;;;;344211;28;984;-56
2023/12/09 00:33:08;;;;;;;14.45;4.65;;;12.20;55.30;;;;;;344102;28;968;-56
2023/12/09 00:33:19;;;;;;;12.70;4.72;;;12.20;55.30;;;;;;344164;28;1104;-56
2023/12/09 00:33:29;;;;;;;12.70;4.90;;;12.20;55.30;;;;;;344198;28;1965;-57
2023/12/09 00:33:40;;;;;;;11.75;4.63;;;12.20;55.30;;;;;;344118;28;1107;-56
2023/12/09 00:33:51;;;;;;;12.82;4.80;;;12.20;55.30;;;;;;344235;28;988;-56
2023/12/09 00:34:02;;;;;;;12.80;4.88;;;12.20;55.30;;;;;;344195;28;980;-57
2023/12/09 00:34:12;;;;;;;13.30;4.63;;;12.20;55.30;;;;;;344098;28;1187;-55
2023/12/09 00:34:23;;;;;;;12.87;4.43;;;12.20;55.30;;;;;;344179;28;1031;-57
2023/12/09 00:34:34;;;;;;;11.90;4.43;;;12.20;55.30;;;;;;344193;28;988;-56
2023/12/09 00:34:45;;;;;;;11.85;4.53;;;12.20;55.30;;;;;;344112;28;1040;-56
2023/12/09 00:34:55;;;;;;;11.25;4.32;;;12.20;55.40;;;;;;344103;28;1096;-57
2023/12/09 00:35:07;;;;;;;11.03;4.23;;;12.20;55.40;;;;;;344210;28;984;-56
2023/12/09 00:35:17;;;;;;;9.98;3.90;;;12.20;55.50;;;;;;344169;28;1494;-57
2023/12/09 00:35:28;;;;;;;9.98;3.92;;;12.20;55.40;;;;;;344099;28;1052;-56
2023/12/09 00:35:39;;;;;;;10.75;3.70;;;12.20;55.40;;;;;;344162;28;968;-56
2023/12/09 00:35:50;;;;;;;11.20;3.73;;;12.20;55.40;;;;;;344243;28;890;-56
2023/12/09 00:36:01;;;;;;;11.10;3.78;;;12.20;55.40;;;;;;344202;28;1064;-57
2023/12/09 00:36:11;;;;;;;12.00;4.20;;;12.20;55.40;;;;;;344179;28;936;-56
2023/12/09 00:36:22;;;;;;;11.70;4.15;;;12.20;55.40;;;;;;344179;28;1088;-56
2023/12/09 00:36:33;;;;;;;12.98;4.38;;;12.20;55.40;;;;;;344217;28;1150;-56
2023/12/09 00:36:44;;;;;;;12.15;4.20;;;12.20;55.40;;;;;;344158;28;1067;-56
2023/12/09 00:36:54;;;;;;;11.03;4.10;;;12.20;55.40;;;;;;344153;28;1011;-57
2023/12/09 00:37:05;;;;;;;9.93;3.75;;;12.20;55.40;;;;;;344257;28;797;-56
2023/12/09 00:37:16;;;;;;;9.40;3.70;;;12.20;55.40;;;;;;344174;28;1565;-56
2023/12/09 00:37:27;;;;;;;10.98;4.00;;;12.20;55.40;;;;;;344228;28;981;-56
2023/12/09 00:37:38;;;;;;;11.10;4.18;;;12.20;55.40;;;;;;344129;28;927;-57
2023/12/09 00:37:50;;;;;;;11.52;4.50;;;12.20;55.50;;;;;;344253;28;996;-58
2023/12/09 00:38:00;;;;;;;10.05;4.28;;;12.20;55.50;;;;;;344208;28;1059;-56
2023/12/09 00:38:11;;;;;;;10.17;4.30;;;12.10;55.60;;;;;;344186;28;1545;-57
2023/12/09 00:38:22;;;;;;;10.25;4.25;;;12.20;55.60;;;;;;344086;28;1112;-57
2023/12/09 00:38:32;;;;;;;12.43;4.50;;;12.10;55.70;;;;;;344166;28;1068;-57
2023/12/09 00:38:43;;;;;;;12.85;4.35;;;12.20;55.70;;;;;;344238;28;1055;-56
2023/12/09 00:38:54;;;;;;;11.50;4.00;;;12.20;55.70;;;;;;344224;28;956;-56
2023/12/09 00:39:05;;;;;;;9.38;3.70;;;12.20;55.60;;;;;;344128;28;1043;-56
2023/12/09 00:39:15;;;;;;;8.38;3.70;;;12.10;55.60;;;;;;344265;28;833;-57
2023/12/09 00:39:26;;;;;;;9.85;3.97;;;12.20;55.60;;;;;;344156;28;1021;-56
2023/12/09 00:39:37;;;;;;;13.18;4.18;;;12.10;55.60;;;;;;344155;28;1068;-56
2023/12/09 00:39:48;;;;;;;13.70;4.30;;;12.20;55.50;;;;;;344018;28;1898;-56
2023/12/09 00:39:58;;;;;;;12.23;4.10;;;12.10;55.60;;;;;;344126;28;1615;-57
2023/12/09 00:40:10;;;;;;;10.43;4.07;;;12.10;55.60;;;;;;344166;28;1029;-56
2023/12/09 00:40:22;;;;;;;8.85;4.10;;;12.10;55.70;;;;;;344232;28;1404;-56
2023/12/09 00:40:33;;;;;;;9.75;4.20;;;12.10;55.70;;;;;;344161;28;1047;-57
2023/12/09 00:40:43;;;;;;;11.07;4.37;;;12.10;55.70;;;;;;344179;28;968;-57
2023/12/09 00:40:54;;;;;;;11.82;4.07;;;12.10;55.80;;;;;;344173;28;868;-56
2023/12/09 00:41:05;;;;;;;11.48;4.00;;;12.10;55.80;;;;;;344191;28;861;-57
2023/12/09 00:41:16;;;;;;;11.05;3.90;;;12.20;55.80;;;;;;344104;28;1119;-57
2023/12/09 00:41:27;;;;;;;12.82;4.20;;;12.10;55.90;;;;;;344217;28;980;-56
2023/12/09 00:41:37;;;;;;;14.30;4.35;;;12.10;56.00;;;;;;344232;28;984;-56
2023/12/09 00:41:48;;;;;;;15.33;4.57;;;12.10;56.10;;;;;;344186;28;1084;-57
2023/12/09 00:41:59;;;;;;;14.23;4.60;;;12.10;56.10;;;;;;344080;28;1108;-55
2023/12/09 00:42:11;;;;;;;13.68;4.50;;;12.10;56.10;;;;;;344181;28;1161;-56
2023/12/09 00:42:21;;;;;;;11.57;4.32;;;12.10;56.20;;;;;;344190;28;1323;-57
2023/12/09 00:42:32;;;;;;;11.88;4.30;;;12.10;56.20;;;;;;344163;28;1008;-57
2023/12/09 00:42:43;;;;;;;12.18;4.22;;;12.10;56.20;;;;;;344177;28;1626;-57
2023/12/09 00:42:54;;;;;;;12.73;4.23;;;12.10;56.20;;;;;;344218;28;818;-56
2023/12/09 00:43:04;;;;;;;11.88;4.20;;;12.10;56.10;;;;;;344115;28;1143;-57
2023/12/09 00:43:15;;;;;;;12.18;4.18;;;12.10;56.10;;;;;;344187;28;1786;-57
2023/12/09 00:43:26;;;;;;;12.73;4.25;;;12.10;56.20;;;;;;344153;28;949;-56
2023/12/09 00:43:37;;;;;;;11.10;4.03;;;12.00;56.10;;;;;;344153;28;1021;-56
2023/12/09 00:43:47;;;;;;;12.30;4.43;;;12.00;56.10;;;;;;344258;28;889;-56
2023/12/09 00:43:58;;;;;;;13.70;4.47;;;12.00;56.20;;;;;;344122;28;1163;-56
2023/12/09 00:44:09;;;;;;;15.43;4.93;;;12.00;56.20;;;;;;344119;28;1067;-57
2023/12/09 00:44:20;;;;;;;12.68;4.60;;;12.00;56.50;;;;;;344178;28;878;-57
2023/12/09 00:44:31;;;;;;;11.90;4.30;;;12.00;56.60;;;;;;344268;28;877;-56
2023/12/09 00:44:42;;;;;;;11.43;4.55;;;11.90;56.60;;;;;;344204;28;1123;-57
2023/12/09 00:44:53;;;;;;;12.43;4.90;;;11.90;56.70;;;;;;344082;28;1115;-57
2023/12/09 00:45:05;;;;;;;13.23;5.15;;;12.00;56.80;;;;;;344179;28;1080;-56
2023/12/09 00:45:16;;;;;;;12.63;4.75;;;11.90;56.80;;;;;;344243;28;932;-55
2023/12/09 00:45:26;;;;;;;12.02;4.40;;;11.90;56.80;;;;;;344174;28;1033;-56
2023/12/09 00:45:37;;;;;;;13.23;4.32;;;12.00;56.80;;;;;;344128;28;1568;-56
2023/12/09 00:45:48;;;;;;;14.33;4.33;;;12.00;56.80;;;;;;344186;28;1063;-58
2023/12/09 00:45:59;;;;;;;13.95;4.40;;;12.00;56.70;;;;;;344125;28;1290;-55
2023/12/09 00:46:10;;;;;;;13.07;4.50;;;12.00;56.70;;;;;;344223;28;1083;-56
2023/12/09 00:46:21;;;;;;;11.80;4.57;;;12.00;56.70;;;;;;344161;28;1092;-56
2023/12/09 00:46:32;;;;;;;11.88;4.57;;;12.00;56.70;;;;;;344191;28;1559;-56
2023/12/09 00:46:43;;;;;;;12.45;4.60;;;11.90;56.80;;;;;;344249;28;806;-56
2023/12/09 00:46:54;;;;;;;11.20;4.57;;;11.90;56.80;;;;;;344154;28;1080;-55
2023/12/09 00:47:04;;;;;;;13.32;4.60;;;12.00;56.80;;;;;;344048;28;1126;-56
2023/12/09 00:47:15;;;;;;;14.35;4.90;;;12.00;56.80;;;;;;344175;28;909;-57
2023/12/09 00:47:26;;;;;;;15.18;5.10;;;11.90;56.80;;;;;;344152;28;1247;-56
2023/12/09 00:47:36;;;;;;;12.43;4.80;;;12.00;56.80;;;;;;344179;28;1139;-56
2023/12/09 00:47:47;;;;;;;12.02;4.60;;;12.00;56.70;;;;;;344070;28;1491;-56
2023/12/09 00:47:59;;;;;;;13.10;4.50;;;12.00;56.70;;;;;;344125;28;1290;-56
2023/12/09 00:48:10;;;;;;;13.10;4.22;;;12.00;56.70;;;;;;344197;28;1040;-58
2023/12/09 00:48:20;;;;;;;13.75;4.50;;;12.00;56.70;;;;;;344127;28;1173;-56
2023/12/09 00:48:31;;;;;;;12.83;4.40;;;12.00;56.80;;;;;;344108;28;1120;-57
2023/12/09 00:48:42;;;;;;;11.70;4.55;;;12.00;57.00;;;;;;344193;28;1091;-56
2023/12/09 00:48:53;;;;;;;12.00;4.45;;;12.00;57.00;;;;;;344159;28;1032;-58
2023/12/09 00:49:04;;;;;;;11.45;4.40;;;12.00;57.10;;;;;;344190;28;960;-56
2023/12/09 00:49:15;;;;;;;11.88;4.50;;;12.00;57.20;;;;;;344073;28;1116;-57
2023/12/09 00:49:26;;;;;;;11.38;4.35;;;12.00;57.20;;;;;;344134;28;1068;-56
2023/12/09 00:49:36;;;;;;;11.80;4.10;;;12.00;57.30;;;;;;344163;28;1020;-56
2023/12/09 00:49:47;;;;;;;10.48;4.10;;;12.00;57.30;;;;;;344121;28;1426;-56
2023/12/09 00:49:58;;;;;;;11.00;4.33;;;12.00;57.30;;;;;;344118;28;896;-56
2023/12/09 00:50:09;;;;;;;11.63;4.55;;;12.00;57.30;;;;;;344222;28;893;-57
2023/12/09 00:50:20;;;;;;;13.23;4.97;;;12.00;57.20;;;;;;344236;28;956;-60
2023/12/09 00:50:30;;;;;;;14.00;5.30;;;12.00;57.20;;;;;;344139;28;1004;-58
2023/12/09 00:50:41;;;;;;;13.63;5.22;;;12.00;57.20;;;;;;344122;28;1088;-56
2023/12/09 00:50:52;;;;;;;13.85;4.90;;;12.00;57.20;;;;;;344085;28;1044;-56
2023/12/09 00:51:03;;;;;;;12.60;4.50;;;12.00;57.10;;;;;;344191;28;1744;-56
2023/12/09 00:51:14;;;;;;;11.32;4.18;;;12.00;57.10;;;;;;344187;28;1000;-57
2023/12/09 00:51:25;;;;;;;10.45;3.78;;;12.00;57.10;;;;;;344199;28;1066;-56
2023/12/09 00:51:35;;;;;;;12.73;3.87;;;12.00;57.00;;;;;;344213;28;940;-57
2023/12/09 00:51:46;;;;;;;12.70;4.10;;;12.00;56.90;;;;;;344111;28;953;-57
2023/12/09 00:51:57;;;;;;;15.18;4.43;;;12.00;56.80;;;;;;344188;28;1064;-56
2023/12/09 00:52:07;;;;;;;12.70;4.43;;;12.00;56.70;;;;;;344200;28;905;-56
2023/12/09 00:52:18;;;;;;;12.43;4.60;;;12.00;56.70;;;;;;344089;28;1345;-57
2023/12/09 00:52:29;;;;;;;13.82;4.35;;;12.00;56.80;;;;;;344153;28;989;-55
2023/12/09 00:52:40;;;;;;;15.10;4.30;;;12.00;56.80;;;;;;344145;28;1039;-57
2023/12/09 00:52:50;;;;;;;14.82;4.30;;;12.00;56.80;;;;;;344160;28;1043;-57
2023/12/09 00:53:01;;;;;;;12.98;4.25;;;12.00;56.70;;;;;;344142;28;912;-56
2023/12/09 00:53:12;;;;;;;13.63;4.30;;;12.00;56.70;;;;;;344244;28;883;-56
2023/12/09 00:53:23;;;;;;;15.93;4.65;;;12.00;56.70;;;;;;344207;28;873;-56
2023/12/09 00:53:33;;;;;;;14.13;4.57;;;12.00;56.60;;;;;;344090;28;1151;-56
2023/12/09 00:53:44;;;;;;;13.93;4.60;;;12.00;56.60;;;;;;344145;28;977;-56
2023/12/09 00:53:55;;;;;;;11.35;4.25;;;12.00;56.60;;;;;;344199;28;981;-56
2023/12/09 00:54:06;;;;;;;12.03;4.37;;;12.00;56.60;;;;;;344208;28;860;-56
2023/12/09 00:54:16;;;;;;;11.85;4.43;;;12.00;56.60;;;;;;344147;28;1162;-56
2023/12/09 00:54:29;;;;;;;13.25;4.50;;;12.00;56.60;;;;;;344114;28;1090;-56
2023/12/09 00:54:39;;;;;;;11.27;4.20;;;12.00;56.60;;;;;;344163;28;1040;-55
2023/12/09 00:54:50;;;;;;;9.77;4.00;;;12.00;56.60;;;;;;344163;28;949;-58
2023/12/09 00:55:01;;;;;;;9.23;4.00;;;12.00;56.60;;;;;;344238;28;818;-56
2023/12/09 00:55:12;;;;;;;10.68;4.55;;;12.00;56.60;;;;;;344188;28;1085;-58
2023/12/09 00:55:23;;;;;;;12.10;4.63;;;12.00;56.60;;;;;;344115;28;1019;-57
2023/12/09 00:55:33;;;;;;;14.50;5.03;;;12.00;56.60;;;;;;344193;28;806;-56
2023/12/09 00:55:44;;;;;;;14.50;4.85;;;12.00;56.60;;;;;;344087;28;1178;-57
2023/12/09 00:55:55;;;;;;;15.07;4.97;;;12.00;56.60;;;;;;344175;28;976;-56
2023/12/09 00:56:06;;;;;;;13.75;4.60;;;12.00;56.60;;;;;;344154;28;976;-57
2023/12/09 00:56:17;;;;;;;13.65;4.50;;;12.00;56.60;;;;;;344127;28;873;-57
2023/12/09 00:56:28;;;;;;;14.45;4.57;;;12.00;56.70;;;;;;344143;28;1096;-57
2023/12/09 00:56:38;;;;;;;13.18;4.57;;;12.00;56.70;;;;;;344177;28;993;-56
2023/12/09 00:56:49;;;;;;;11.83;4.50;;;12.00;56.70;;;;;;344217;28;980;-58
2023/12/09 00:57:00;;;;;;;11.35;4.47;;;12.00;56.70;;;;;;344172;28;1048;-55
2023/12/09 00:57:11;;;;;;;13.40;4.37;;;12.00;56.80;;;;;;344056;28;1059;-57
2023/12/09 00:57:24;;;;;;;12.80;4.38;;;12.00;56.80;;;;;;344234;28;809;-57
2023/12/09 00:57:34;;;;;;;11.73;4.35;;;12.00;56.90;;;;;;344092;28;2311;-57
2023/12/09 00:57:45;;;;;;;10.13;4.30;;;11.90;57.00;;;;;;344173;28;901;-56
2023/12/09 00:57:56;;;;;;;10.57;4.22;;;12.00;57.10;;;;;;344130;28;998;-55